Time;durP1;ratioP1;P1;durP2;ratioP2;P2;SDS_P1;SDS_P2;PMS_P1;PMS_P2;Temp;Humidity;BMP_temperature;BMP_pressure;BME280_temperature;BME280_humidity;BME280_pressure;Samples;Min_cycle;Max_cycle;Signal;HPM_P1;HPM_P2
2021/12/18 00:01:18;;;;;;;27.25;15.55;;;;;;;;;;5070383;28;20110;-67
2021/12/18 00:03:44;;;;;;;30.33;14.95;;;;;;;;;;5069647;28;20202;-67
2021/12/18 00:06:10;;;;;;;29.60;15.05;;;;;;;;;;5088196;28;20066;-67
2021/12/18 00:08:37;;;;;;;43.50;25.05;;;;;;;;;;5088813;28;20024;-68
2021/12/18 00:11:03;;;;;;;39.25;22.30;;;;;;;;;;5070388;28;20028;-66
2021/12/18 00:13:29;;;;;;;29.02;14.98;;;;;;;;;;5088200;28;20484;-67
2021/12/18 00:15:55;;;;;;;29.90;15.07;;;;;;;;;;5069685;28;20024;-67
2021/12/18 00:18:22;;;;;;;29.08;15.25;;;;;;;;;;5070700;28;20058;-68
2021/12/18 00:20:48;;;;;;;28.17;13.25;;;;;;;;;;5088707;28;20016;-68
2021/12/18 00:23:15;;;;;;;27.90;14.93;;;;;;;;;;5087984;28;20024;-68
2021/12/18 00:25:41;;;;;;;29.90;14.82;;;;;;;;;;5088715;28;20109;-67
2021/12/18 00:28:07;;;;;;;27.25;14.05;;;;;;;;;;5069743;28;20168;-68
2021/12/18 00:30:34;;;;;;;28.95;14.57;;;;;;;;;;5088389;28;20024;-68
2021/12/18 00:33:00;;;;;;;29.40;14.48;;;;;;;;;;5087489;28;20032;-68
2021/12/18 00:35:26;;;;;;;27.63;12.85;;;;;;;;;;5069774;28;20028;-68
2021/12/18 00:37:52;;;;;;;28.63;14.02;;;;;;;;;;5087746;28;20024;-69
2021/12/18 00:40:23;;;;;;;31.98;15.02;;;;;;;;;;5087728;28;20024;-70
2021/12/18 00:42:58;;;;;;;28.52;15.13;;;;;;;;;;5069259;28;20127;-67
2021/12/18 00:45:24;;;;;;;30.80;15.00;;;;;;;;;;5088395;28;20476;-67
2021/12/18 00:47:50;;;;;;;30.90;14.82;;;;;;;;;;5069859;28;20054;-68
2021/12/18 00:50:21;;;;;;;30.52;15.48;;;;;;;;;;5087923;28;20020;-66
2021/12/18 00:52:47;;;;;;;29.75;14.70;;;;;;;;;;5087084;28;20028;-67
2021/12/18 00:55:14;;;;;;;29.77;16.40;;;;;;;;;;5088242;28;20024;-67
2021/12/18 00:57:40;;;;;;;29.98;15.48;;;;;;;;;;5087980;28;20114;-67
2021/12/18 01:00:08;;;;;;;30.88;16.48;;;;;;;;;;5069949;28;20116;-69
2021/12/18 01:02:34;;;;;;;31.77;15.70;;;;;;;;;;5088713;28;20380;-68
2021/12/18 01:05:00;;;;;;;28.98;14.57;;;;;;;;;;5071339;28;20229;-68
2021/12/18 01:07:26;;;;;;;32.08;16.25;;;;;;;;;;5071660;28;20039;-68
2021/12/18 01:12:37;;;;;;;23.17;10.73;;;;;;;;;;5093425;28;20103;-68
2021/12/18 01:23:06;;;;;;;24.75;11.40;;;;;;;;;;5094608;28;20123;-68
2021/12/18 01:25:32;;;;;;;23.88;11.52;;;;;;;;;;5076825;28;20028;-67
2021/12/18 01:27:58;;;;;;;24.05;10.52;;;;;;;;;;5094827;28;20020;-68
2021/12/18 01:30:24;;;;;;;24.52;10.32;;;;;;;;;;5076822;28;20024;-68
2021/12/18 01:32:50;;;;;;;22.45;11.32;;;;;;;;;;5076058;28;20055;-69
2021/12/18 01:35:17;;;;;;;21.83;10.18;;;;;;;;;;5094781;28;20031;-68
2021/12/18 01:37:44;;;;;;;21.58;9.77;;;;;;;;;;5076345;28;20028;-67
2021/12/18 01:40:11;;;;;;;19.92;9.23;;;;;;;;;;5094618;28;20024;-69
2021/12/18 01:45:21;;;;;;;21.40;9.18;;;;;;;;;;5094790;28;20036;-68
2021/12/18 01:53:04;;;;;;;17.75;8.75;;;;;;;;;;5094149;28;20101;-67
2021/12/18 01:55:32;;;;;;;18.55;9.02;;;;;;;;;;5076373;28;20062;-67
2021/12/18 01:57:58;;;;;;;19.70;9.07;;;;;;;;;;5075890;28;20063;-66
2021/12/18 02:00:30;;;;;;;18.52;8.23;;;;;;;;;;5075888;28;20028;-65
2021/12/18 02:02:56;;;;;;;18.58;8.73;;;;;;;;;;5093299;28;20410;-67
2021/12/18 02:05:22;;;;;;;19.90;8.43;;;;;;;;;;5094044;28;20051;-68
2021/12/18 02:07:48;;;;;;;19.38;8.75;;;;;;;;;;5094134;28;20024;-67
2021/12/18 02:10:27;;;;;;;21.35;9.60;;;;;;;;;;5094038;28;20611;-67
2021/12/18 02:20:55;;;;;;;19.23;8.60;;;;;;;;;;5094420;28;20030;-68
2021/12/18 02:23:22;;;;;;;19.08;9.18;;;;;;;;;;5093085;28;20024;-69
2021/12/18 02:25:48;;;;;;;21.27;10.70;;;;;;;;;;5075765;28;20016;-67
2021/12/18 02:28:18;;;;;;;20.02;10.00;;;;;;;;;;5093716;28;20027;-68
2021/12/18 02:30:45;;;;;;;19.73;9.73;;;;;;;;;;5093845;28;20067;-67
2021/12/18 02:33:12;;;;;;;21.60;9.55;;;;;;;;;;5093013;28;20461;-67
2021/12/18 02:35:44;;;;;;;23.80;10.40;;;;;;;;;;5094028;28;20070;-67
2021/12/18 02:38:17;;;;;;;24.27;11.05;;;;;;;;;;5093500;28;20384;-67
2021/12/18 02:40:59;;;;;;;22.73;10.93;;;;;;;;;;5093872;28;20498;-67
2021/12/18 02:43:27;;;;;;;21.25;9.68;;;;;;;;;;5093011;28;20024;-67
2021/12/18 02:45:57;;;;;;;23.70;9.98;;;;;;;;;;5075585;28;20024;-67
2021/12/18 02:48:23;;;;;;;22.23;10.45;;;;;;;;;;5093310;28;20024;-67
2021/12/18 02:50:50;;;;;;;22.75;10.57;;;;;;;;;;5093431;28;20016;-66
2021/12/18 02:53:16;;;;;;;24.55;10.88;;;;;;;;;;5074499;28;20032;-67
2021/12/18 02:55:42;;;;;;;25.33;10.93;;;;;;;;;;5075192;28;20118;-67
2021/12/18 02:58:08;;;;;;;22.63;10.57;;;;;;;;;;5093172;28;20468;-67
2021/12/18 03:00:34;;;;;;;28.40;11.75;;;;;;;;;;5093223;28;20103;-67
2021/12/18 03:03:05;;;;;;;22.67;9.77;;;;;;;;;;5092455;28;20020;-66
2021/12/18 03:05:38;;;;;;;27.13;14.55;;;;;;;;;;5075069;28;20016;-67
2021/12/18 03:08:12;;;;;;;23.75;12.25;;;;;;;;;;5093117;28;20537;-68
2021/12/18 03:19:27;;;;;;;27.38;11.88;;;;;;;;;;5093291;28;20135;-68
2021/12/18 03:24:43;;;;;;;26.58;11.82;;;;;;;;;;5093199;28;20063;-67
2021/12/18 03:27:09;;;;;;;29.08;12.77;;;;;;;;;;5092670;28;20012;-67
2021/12/18 03:29:35;;;;;;;29.85;14.32;;;;;;;;;;5092847;28;20020;-67
2021/12/18 03:32:01;;;;;;;27.88;12.07;;;;;;;;;;5091568;28;20395;-68
2021/12/18 03:34:27;;;;;;;29.65;13.05;;;;;;;;;;5092416;28;20488;-67
2021/12/18 03:36:53;;;;;;;33.10;13.15;;;;;;;;;;5073741;28;20027;-67
2021/12/18 03:39:19;;;;;;;30.88;14.15;;;;;;;;;;5113686;22;20075;-70
2021/12/18 03:41:45;;;;;;;32.40;14.57;;;;;;;;;;5074939;28;20020;-70
2021/12/18 03:44:11;;;;;;;27.75;12.30;;;;;;;;;;5093588;28;20030;-70
2021/12/18 03:46:37;;;;;;;29.58;12.52;;;;;;;;;;5075581;28;20031;-70
2021/12/18 03:49:04;;;;;;;30.83;12.15;;;;;;;;;;5075623;28;20020;-69
2021/12/18 03:51:30;;;;;;;24.60;10.35;;;;;;;;;;5093381;28;20091;-70
2021/12/18 03:53:56;;;;;;;25.33;10.55;;;;;;;;;;5093031;28;20043;-70
2021/12/18 03:56:22;;;;;;;24.13;9.75;;;;;;;;;;5074811;28;20034;-70
2021/12/18 03:58:48;;;;;;;26.27;12.10;;;;;;;;;;5092779;28;20031;-70
2021/12/18 04:01:14;;;;;;;25.35;10.48;;;;;;;;;;5075101;28;20024;-69
2021/12/18 04:03:40;;;;;;;22.50;9.60;;;;;;;;;;5092510;28;20028;-69
2021/12/18 04:06:06;;;;;;;25.27;9.90;;;;;;;;;;5074978;28;20046;-69
2021/12/18 04:08:32;;;;;;;23.95;10.05;;;;;;;;;;5074915;28;20554;-70
2021/12/18 04:10:58;;;;;;;22.20;8.85;;;;;;;;;;5092837;28;20028;-70
2021/12/18 04:13:24;;;;;;;21.13;8.40;;;;;;;;;;5074343;28;20031;-70
2021/12/18 04:15:50;;;;;;;19.83;8.90;;;;;;;;;;5074775;28;20024;-70
2021/12/18 04:18:16;;;;;;;20.88;9.52;;;;;;;;;;5092757;28;20155;-70
2021/12/18 04:20:42;;;;;;;22.25;9.50;;;;;;;;;;5092845;28;20480;-70
2021/12/18 04:23:08;;;;;;;19.38;8.07;;;;;;;;;;5090772;28;20039;-70
2021/12/18 04:25:34;;;;;;;22.73;9.90;;;;;;;;;;5075047;28;20020;-70
2021/12/18 04:28:00;;;;;;;21.55;8.75;;;;;;;;;;5094134;28;20055;-68
2021/12/18 04:30:26;;;;;;;285.85;173.90;;;;;;;;;;5075057;28;20024;-69
2021/12/18 04:32:52;;;;;;;183.13;114.03;;;;;;;;;;5092110;28;20034;-69
2021/12/18 04:35:18;;;;;;;29.52;15.25;;;;;;;;;;5074430;28;20028;-69
2021/12/18 04:37:44;;;;;;;25.60;11.50;;;;;;;;;;5053091;28;1115242;-70
2021/12/18 04:40:11;;;;;;;73.15;44.60;;;;;;;;;;5093355;28;20020;-70
2021/12/18 04:42:37;;;;;;;34.50;20.08;;;;;;;;;;5074101;28;20562;-69
2021/12/18 04:45:04;;;;;;;23.20;9.35;;;;;;;;;;5074907;28;20463;-69
2021/12/18 04:47:30;;;;;;;19.63;8.20;;;;;;;;;;5075191;28;20027;-70
2021/12/18 04:49:56;;;;;;;20.38;8.95;;;;;;;;;;5075111;28;20021;-70
2021/12/18 04:52:23;;;;;;;19.75;8.02;;;;;;;;;;5092546;28;20050;-70
2021/12/18 04:54:49;;;;;;;20.52;8.85;;;;;;;;;;5092993;28;20039;-70
2021/12/18 04:57:15;;;;;;;18.20;8.20;;;;;;;;;;5093368;28;20024;-70
2021/12/18 04:59:45;;;;;;;18.20;8.02;;;;;;;;;;5075274;28;20031;-70
2021/12/18 05:02:18;;;;;;;20.70;9.30;;;;;;;;;;5074282;28;20028;-69
2021/12/18 05:04:44;;;;;;;17.42;7.22;;;;;;;;;;5093157;28;20024;-70
2021/12/18 05:07:11;;;;;;;19.77;8.25;;;;;;;;;;5093223;28;20031;-70
2021/12/18 05:09:40;;;;;;;21.40;8.63;;;;;;;;;;5092956;28;20016;-70
2021/12/18 05:12:07;;;;;;;20.25;9.02;;;;;;;;;;5074816;28;20028;-69
2021/12/18 05:14:33;;;;;;;22.10;8.85;;;;;;;;;;5075867;28;20028;-70
2021/12/18 05:16:59;;;;;;;20.77;9.07;;;;;;;;;;5094010;28;20099;-70
2021/12/18 05:19:25;;;;;;;18.83;8.45;;;;;;;;;;5075664;28;20024;-70
2021/12/18 05:21:51;;;;;;;22.10;9.18;;;;;;;;;;5074596;28;20034;-69
2021/12/18 05:24:17;;;;;;;19.77;8.73;;;;;;;;;;5075583;28;20020;-70
2021/12/18 05:26:43;;;;;;;21.48;8.52;;;;;;;;;;5093473;28;20453;-70
2021/12/18 05:29:08;;;;;;;20.67;9.23;;;;;;;;;;5093699;28;20027;-70
2021/12/18 05:31:35;;;;;;;22.40;9.27;;;;;;;;;;5074381;28;20027;-67
2021/12/18 05:34:03;;;;;;;21.52;8.60;;;;;;;;;;5093282;28;20021;-69
2021/12/18 05:39:13;;;;;;;23.23;9.75;;;;;;;;;;5093643;28;20135;-69
2021/12/18 05:41:39;;;;;;;19.90;8.10;;;;;;;;;;5092819;28;20060;-69
2021/12/18 05:44:06;;;;;;;21.92;9.23;;;;;;;;;;5093450;28;20024;-70
2021/12/18 05:46:32;;;;;;;21.42;8.73;;;;;;;;;;5093395;28;20024;-71
2021/12/18 05:48:58;;;;;;;19.80;8.35;;;;;;;;;;5093391;28;20024;-70
2021/12/18 05:51:24;;;;;;;17.90;8.27;;;;;;;;;;5093854;28;20024;-70
2021/12/18 05:53:50;;;;;;;18.42;7.75;;;;;;;;;;5094543;28;20024;-70
2021/12/18 05:56:16;;;;;;;20.42;8.23;;;;;;;;;;5078601;28;20031;-68
2021/12/18 05:58:44;;;;;;;17.42;8.18;;;;;;;;;;5078938;28;20407;-70
2021/12/18 06:01:10;;;;;;;18.02;7.93;;;;;;;;;;5078518;28;20031;-70
2021/12/18 06:03:36;;;;;;;17.90;7.60;;;;;;;;;;5078400;28;20082;-70
2021/12/18 06:06:02;;;;;;;17.20;7.55;;;;;;;;;;5096310;28;20024;-70
2021/12/18 06:08:31;;;;;;;17.58;7.53;;;;;;;;;;5077939;28;20027;-70
2021/12/18 06:11:04;;;;;;;18.67;8.50;;;;;;;;;;5096043;28;20472;-70
2021/12/18 06:13:30;;;;;;;18.13;8.25;;;;;;;;;;5077054;28;20024;-69
2021/12/18 06:15:56;;;;;;;17.42;8.55;;;;;;;;;;5078024;28;20028;-70
2021/12/18 06:18:21;;;;;;;18.98;9.27;;;;;;;;;;5077985;28;20034;-70
2021/12/18 06:20:47;;;;;;;17.10;7.80;;;;;;;;;;5095898;28;20024;-69
2021/12/18 06:23:13;;;;;;;18.27;7.93;;;;;;;;;;5095686;28;20464;-70
2021/12/18 06:25:39;;;;;;;16.52;6.65;;;;;;;;;;5095880;28;20043;-72
2021/12/18 06:28:05;;;;;;;17.27;7.45;;;;;;;;;;5095861;28;20024;-70
2021/12/18 06:30:31;;;;;;;16.60;7.45;;;;;;;;;;5077767;28;20020;-69
2021/12/18 06:32:57;;;;;;;16.35;6.13;;;;;;;;;;5077075;28;20123;-71
2021/12/18 06:35:23;;;;;;;16.63;6.88;;;;;;;;;;5075896;28;20089;-69
2021/12/18 06:37:50;;;;;;;17.98;6.43;;;;;;;;;;5077056;28;20020;-69
2021/12/18 06:40:16;;;;;;;16.17;6.32;;;;;;;;;;5095285;28;20032;-70
2021/12/18 06:42:43;;;;;;;15.82;7.10;;;;;;;;;;5077587;28;20020;-70
2021/12/18 06:45:10;;;;;;;16.42;6.80;;;;;;;;;;5068383;28;20499;-69
2021/12/18 06:47:36;;;;;;;14.27;6.10;;;;;;;;;;5077096;28;20467;-69
2021/12/18 06:50:04;;;;;;;16.30;6.90;;;;;;;;;;5077843;28;20041;-69
2021/12/18 06:52:30;;;;;;;15.60;6.45;;;;;;;;;;5083531;28;20131;-69
2021/12/18 06:54:56;;;;;;;19.42;7.68;;;;;;;;;;5076652;28;20030;-70
2021/12/18 06:57:22;;;;;;;14.90;7.15;;;;;;;;;;5076620;28;20024;-70
2021/12/18 06:59:49;;;;;;;16.08;7.20;;;;;;;;;;5091238;28;20028;-70
2021/12/18 07:02:15;;;;;;;17.67;6.85;;;;;;;;;;5069772;28;20050;-69
2021/12/18 07:04:41;;;;;;;18.02;6.85;;;;;;;;;;5085409;28;20100;-71
2021/12/18 07:07:07;;;;;;;17.40;7.50;;;;;;;;;;5075838;28;20052;-70
2021/12/18 07:09:33;;;;;;;18.38;7.07;;;;;;;;;;5066565;28;20020;-70
2021/12/18 07:11:59;;;;;;;16.73;6.90;;;;;;;;;;5073897;28;20021;-70
2021/12/18 07:14:26;;;;;;;20.58;7.72;;;;;;;;;;5056516;28;20021;-69
2021/12/18 07:16:52;;;;;;;18.27;8.15;;;;;;;;;;5074398;28;20051;-70
2021/12/18 07:19:18;;;;;;;20.85;9.25;;;;;;;;;;5074683;28;20493;-71
2021/12/18 07:21:44;;;;;;;18.08;8.18;;;;;;;;;;5056162;28;20081;-70
2021/12/18 07:24:10;;;;;;;19.52;8.80;;;;;;;;;;5074472;28;20468;-70
2021/12/18 07:26:36;;;;;;;17.58;7.65;;;;;;;;;;5074345;28;20032;-69
2021/12/18 07:29:02;;;;;;;18.63;8.27;;;;;;;;;;5074171;28;20074;-69
2021/12/18 07:31:28;;;;;;;17.17;7.38;;;;;;;;;;5056250;28;20040;-69
2021/12/18 07:33:54;;;;;;;18.42;7.57;;;;;;;;;;5055888;28;20032;-69
2021/12/18 07:36:20;;;;;;;15.43;7.07;;;;;;;;;;5074334;28;20020;-70
2021/12/18 07:38:46;;;;;;;18.23;8.00;;;;;;;;;;5065124;28;20082;-70
2021/12/18 07:41:12;;;;;;;17.00;6.40;;;;;;;;;;5094647;28;20396;-71
2021/12/18 07:43:38;;;;;;;17.20;6.93;;;;;;;;;;5093853;28;20032;-70
2021/12/18 07:46:04;;;;;;;17.40;7.63;;;;;;;;;;5076139;28;20020;-68
2021/12/18 07:48:30;;;;;;;18.02;8.10;;;;;;;;;;5075987;28;20020;-70
2021/12/18 07:50:56;;;;;;;18.60;6.95;;;;;;;;;;5094225;28;20432;-70
2021/12/18 07:53:24;;;;;;;17.38;6.85;;;;;;;;;;5082918;28;20024;-70
2021/12/18 07:55:50;;;;;;;16.67;6.97;;;;;;;;;;5075736;28;20039;-69
2021/12/18 07:58:16;;;;;;;16.92;7.28;;;;;;;;;;5063844;28;20030;-69
2021/12/18 08:00:43;;;;;;;17.63;7.65;;;;;;;;;;5059068;28;20024;-70
2021/12/18 08:03:09;;;;;;;17.92;7.70;;;;;;;;;;5059050;28;20025;-71
2021/12/18 08:05:35;;;;;;;18.25;7.55;;;;;;;;;;5078390;28;20025;-71
2021/12/18 08:08:01;;;;;;;17.23;7.90;;;;;;;;;;5063643;28;20042;-72
2021/12/18 08:10:27;;;;;;;18.08;7.63;;;;;;;;;;5077225;28;20021;-72
2021/12/18 08:12:53;;;;;;;16.50;7.60;;;;;;;;;;5058875;28;20035;-73
2021/12/18 08:15:21;;;;;;;19.35;8.90;;;;;;;;;;5059784;28;20409;-73
2021/12/18 08:17:47;;;;;;;16.55;7.15;;;;;;;;;;5058828;28;20020;-72
2021/12/18 08:20:13;;;;;;;14.52;6.45;;;;;;;;;;5059369;28;20032;-73
2021/12/18 08:22:39;;;;;;;16.30;6.47;;;;;;;;;;5059237;28;20025;-72
2021/12/18 08:25:06;;;;;;;15.30;5.95;;;;;;;;;;5059491;28;20387;-72
2021/12/18 08:27:32;;;;;;;14.63;5.93;;;;;;;;;;5059011;28;20064;-73
2021/12/18 08:29:59;;;;;;;14.25;5.35;;;;;;;;;;5078044;28;20420;-72
2021/12/18 08:32:24;;;;;;;16.90;6.13;;;;;;;;;;5077137;28;20059;-72
2021/12/18 08:34:51;;;;;;;14.32;5.68;;;;;;;;;;5077689;28;20029;-72
2021/12/18 08:37:17;;;;;;;14.90;5.80;;;;;;;;;;5065030;28;20023;-73
2021/12/18 08:39:43;;;;;;;17.42;5.82;;;;;;;;;;5079709;28;20430;-73
2021/12/18 08:42:09;;;;;;;15.00;5.93;;;;;;;;;;5079097;28;20029;-72
2021/12/18 08:44:35;;;;;;;15.95;5.97;;;;;;;;;;5097820;28;20021;-72
2021/12/18 08:47:04;;;;;;;14.02;5.70;;;;;;;;;;5097455;28;20049;-72
2021/12/18 08:49:30;;;;;;;13.05;5.13;;;;;;;;;;5079461;28;20569;-73
2021/12/18 08:51:56;;;;;;;15.52;6.30;;;;;;;;;;5096935;28;20025;-72
2021/12/18 08:54:22;;;;;;;14.55;5.82;;;;;;;;;;5079030;28;20016;-72
2021/12/18 08:56:48;;;;;;;15.05;5.72;;;;;;;;;;5080083;28;20052;-70
2021/12/18 08:59:14;;;;;;;15.00;5.65;;;;;;;;;;5085104;28;20016;-70
2021/12/18 09:01:41;;;;;;;14.38;6.05;;;;;;;;;;5084719;28;20390;-70
2021/12/18 09:04:07;;;;;;;14.38;5.93;;;;;;;;;;5102504;28;20024;-70
2021/12/18 09:06:33;;;;;;;15.05;5.75;;;;;;;;;;5081311;28;20042;-74
2021/12/18 09:08:59;;;;;;;15.05;6.72;;;;;;;;;;5093668;28;20012;-75
2021/12/18 09:11:25;;;;;;;15.90;7.10;;;;;;;;;;5093651;28;20500;-75
2021/12/18 09:13:51;;;;;;;13.95;6.05;;;;;;;;;;5093114;28;20106;-74
2021/12/18 09:16:18;;;;;;;14.52;5.80;;;;;;;;;;5075844;28;20029;-75
2021/12/18 09:18:44;;;;;;;15.98;7.03;;;;;;;;;;5093719;28;20050;-74
2021/12/18 09:21:10;;;;;;;14.43;5.90;;;;;;;;;;5093035;28;20383;-74
2021/12/18 09:23:36;;;;;;;15.30;5.68;;;;;;;;;;5092808;28;20111;-74
2021/12/18 09:26:02;;;;;;;14.13;5.75;;;;;;;;;;5093447;28;20016;-74
2021/12/18 09:28:28;;;;;;;14.77;5.85;;;;;;;;;;5075179;28;20020;-75
2021/12/18 09:30:54;;;;;;;14.60;6.38;;;;;;;;;;5078911;28;20016;-74
2021/12/18 09:33:20;;;;;;;18.13;8.23;;;;;;;;;;5080225;28;20028;-75
2021/12/18 09:35:46;;;;;;;16.20;6.57;;;;;;;;;;5086089;28;20044;-75
2021/12/18 09:38:12;;;;;;;15.82;6.85;;;;;;;;;;5123336;22;20024;-68
2021/12/18 09:40:39;;;;;;;18.15;8.70;;;;;;;;;;5092984;28;20043;-69
2021/12/18 09:43:05;;;;;;;15.57;6.95;;;;;;;;;;5093989;28;20039;-66
2021/12/18 09:45:31;;;;;;;15.60;6.65;;;;;;;;;;5093123;28;20024;-67
2021/12/18 09:47:57;;;;;;;14.55;6.22;;;;;;;;;;5094250;28;20084;-66
2021/12/18 09:50:24;;;;;;;15.77;6.22;;;;;;;;;;5094326;28;20063;-67
2021/12/18 09:52:51;;;;;;;13.82;5.88;;;;;;;;;;5093500;28;20024;-66
2021/12/18 09:55:17;;;;;;;14.82;6.53;;;;;;;;;;5094233;28;20032;-67
2021/12/18 09:57:44;;;;;;;16.85;6.45;;;;;;;;;;5076036;28;20020;-66
2021/12/18 10:00:12;;;;;;;14.15;5.70;;;;;;;;;;5075888;28;20024;-65
2021/12/18 10:02:39;;;;;;;15.85;6.10;;;;;;;;;;5075245;28;20575;-69
2021/12/18 10:05:05;;;;;;;13.73;5.65;;;;;;;;;;5075997;28;20054;-68
2021/12/18 10:07:31;;;;;;;13.35;5.82;;;;;;;;;;5094053;28;20056;-69
2021/12/18 10:09:58;;;;;;;14.05;5.85;;;;;;;;;;5093652;28;20079;-69
2021/12/18 10:12:29;;;;;;;13.73;5.65;;;;;;;;;;5074718;28;20027;-68
2021/12/18 10:14:57;;;;;;;16.02;6.45;;;;;;;;;;5094112;28;20073;-68
2021/12/18 10:17:22;;;;;;;13.48;5.57;;;;;;;;;;5094069;28;20107;-67
2021/12/18 10:19:50;;;;;;;16.45;6.05;;;;;;;;;;5093655;28;20472;-67
2021/12/18 10:22:16;;;;;;;15.68;5.28;;;;;;;;;;5093010;28;20028;-67
2021/12/18 10:24:43;;;;;;;15.45;6.03;;;;;;;;;;5075228;28;20580;-67
2021/12/18 10:27:16;;;;;;;15.52;5.32;;;;;;;;;;5093635;28;20024;-67
2021/12/18 10:29:42;;;;;;;14.18;5.32;;;;;;;;;;5088668;28;20063;-67
2021/12/18 10:32:10;;;;;;;13.93;6.05;;;;;;;;;;5074017;28;20418;-66
2021/12/18 10:34:38;;;;;;;12.77;5.70;;;;;;;;;;5093917;28;20028;-66
2021/12/18 10:37:15;;;;;;;14.88;5.68;;;;;;;;;;5075788;28;20020;-66
2021/12/18 10:39:46;;;;;;;13.88;6.53;;;;;;;;;;5093450;28;20040;-69
2021/12/18 10:42:31;;;;;;;15.15;6.60;;;;;;;;;;5091256;28;20051;-67
2021/12/18 10:45:03;;;;;;;18.90;8.05;;;;;;;;;;5075329;28;20028;-67
2021/12/18 10:47:49;;;;;;;14.93;6.45;;;;;;;;;;5092854;28;20097;-64
2021/12/18 10:50:23;;;;;;;14.80;6.45;;;;;;;;;;5093340;28;20024;-67
2021/12/18 10:52:52;;;;;;;14.45;5.85;;;;;;;;;;5092515;28;20024;-67
2021/12/18 10:55:18;;;;;;;16.83;6.60;;;;;;;;;;5092932;28;20410;-67
2021/12/18 10:57:51;;;;;;;15.90;6.45;;;;;;;;;;5074791;28;20088;-67
2021/12/18 11:00:20;;;;;;;15.25;6.63;;;;;;;;;;5092832;28;20023;-68
2021/12/18 11:02:46;;;;;;;17.00;6.88;;;;;;;;;;5073635;28;20032;-67
2021/12/18 11:05:16;;;;;;;15.13;6.18;;;;;;;;;;5091275;28;20030;-68
2021/12/18 11:07:44;;;;;;;17.08;6.57;;;;;;;;;;5075174;28;20028;-68
2021/12/18 11:10:29;;;;;;;15.50;6.40;;;;;;;;;;5093385;28;20476;-68
2021/12/18 11:15:39;;;;;;;16.00;6.78;;;;;;;;;;5093191;28;20055;-67
2021/12/18 11:18:06;;;;;;;14.93;6.35;;;;;;;;;;5092832;28;20472;-67
2021/12/18 11:20:33;;;;;;;14.70;6.35;;;;;;;;;;5092667;28;20440;-67
2021/12/18 11:22:59;;;;;;;15.00;6.15;;;;;;;;;;5073982;28;20157;-69
2021/12/18 11:25:25;;;;;;;15.40;6.32;;;;;;;;;;5092623;28;20487;-68
2021/12/18 11:27:52;;;;;;;14.75;7.13;;;;;;;;;;5092590;28;20475;-68
2021/12/18 11:30:18;;;;;;;13.23;5.70;;;;;;;;;;5092526;28;20503;-66
2021/12/18 11:32:53;;;;;;;13.27;6.05;;;;;;;;;;5091793;28;20031;-66
2021/12/18 11:35:20;;;;;;;12.45;5.97;;;;;;;;;;5092381;28;20024;-68
2021/12/18 11:37:51;;;;;;;13.93;5.85;;;;;;;;;;5092154;28;20547;-66
2021/12/18 11:40:19;;;;;;;12.32;5.65;;;;;;;;;;5092209;28;20039;-68
2021/12/18 11:42:47;;;;;;;12.40;5.72;;;;;;;;;;5073285;28;20167;-66
2021/12/18 11:45:13;;;;;;;11.97;5.70;;;;;;;;;;5073804;28;20028;-68
2021/12/18 11:47:39;;;;;;;14.77;5.97;;;;;;;;;;5091813;28;20028;-68
2021/12/18 11:50:22;;;;;;;13.63;5.70;;;;;;;;;;5073539;28;20472;-66
2021/12/18 11:52:52;;;;;;;13.48;5.50;;;;;;;;;;5090806;28;20052;-68
2021/12/18 11:55:19;;;;;;;12.93;5.38;;;;;;;;;;5073458;28;20028;-67
2021/12/18 11:57:48;;;;;;;12.35;5.60;;;;;;;;;;5091690;28;20036;-66
2021/12/18 12:00:23;;;;;;;11.27;5.10;;;;;;;;;;5091793;28;20051;-67
2021/12/18 12:02:51;;;;;;;12.27;5.40;;;;;;;;;;5090727;28;20103;-67
2021/12/18 12:05:18;;;;;;;13.35;5.60;;;;;;;;;;5090072;28;20024;-67
2021/12/18 12:07:45;;;;;;;12.05;5.32;;;;;;;;;;5073031;28;20047;-68
2021/12/18 12:10:13;;;;;;;14.15;5.47;;;;;;;;;;5073232;28;20480;-67
2021/12/18 12:12:51;;;;;;;14.98;5.60;;;;;;;;;;5090668;28;20373;-67
2021/12/18 12:15:18;;;;;;;15.98;5.88;;;;;;;;;;5091619;28;20024;-67
2021/12/18 12:17:58;;;;;;;14.65;6.20;;;;;;;;;;5092858;28;20387;-67
2021/12/18 12:20:43;;;;;;;13.40;6.13;;;;;;;;;;5091348;28;20028;-67
2021/12/18 12:23:10;;;;;;;16.70;5.93;;;;;;;;;;5090565;28;20024;-66
2021/12/18 12:25:49;;;;;;;14.73;6.60;;;;;;;;;;5091288;28;20483;-66
2021/12/18 12:28:20;;;;;;;16.90;7.10;;;;;;;;;;5091268;28;20483;-67
2021/12/18 12:30:46;;;;;;;15.68;6.25;;;;;;;;;;5091339;28;20089;-66
2021/12/18 12:33:20;;;;;;;13.77;5.97;;;;;;;;;;5090415;28;20169;-68
2021/12/18 12:36:01;;;;;;;16.73;6.20;;;;;;;;;;5091055;28;20032;-68
2021/12/18 12:38:33;;;;;;;13.10;5.65;;;;;;;;;;5091026;28;20054;-68
2021/12/18 12:41:35;;;;;;;14.65;6.07;;;;;;;;;;5073096;28;20085;-67
2021/12/18 12:44:12;;;;;;;13.70;5.85;;;;;;;;;;4988956;28;20041;-66
2021/12/18 12:46:38;;;;;;;13.73;5.60;;;;;;;;;;5078242;28;20028;-66
2021/12/18 12:49:08;;;;;;;14.82;6.15;;;;;;;;;;5091137;28;20031;-67
2021/12/18 12:51:55;;;;;;;13.45;6.13;;;;;;;;;;5072512;28;20032;-66
2021/12/18 12:54:39;;;;;;;16.85;6.57;;;;;;;;;;5091684;28;20012;-67
2021/12/18 12:57:27;;;;;;;13.75;5.85;;;;;;;;;;5090729;28;20065;-65
2021/12/18 12:59:54;;;;;;;16.85;5.75;;;;;;;;;;5091135;28;20040;-66
2021/12/18 13:02:21;;;;;;;17.00;6.38;;;;;;;;;;5090389;28;20032;-66
2021/12/18 13:04:47;;;;;;;16.02;6.35;;;;;;;;;;5073675;28;20079;-67
2021/12/18 13:07:13;;;;;;;17.55;6.72;;;;;;;;;;5095137;28;20073;-68
2021/12/18 13:09:46;;;;;;;15.98;6.63;;;;;;;;;;5077105;28;20095;-68
2021/12/18 13:12:13;;;;;;;16.52;6.65;;;;;;;;;;5094516;28;20020;-66
2021/12/18 13:14:40;;;;;;;15.77;6.88;;;;;;;;;;5095072;28;20034;-69
2021/12/18 13:17:18;;;;;;;16.63;6.45;;;;;;;;;;5095398;28;20024;-68
2021/12/18 13:19:53;;;;;;;16.08;6.63;;;;;;;;;;5094951;28;20024;-67
2021/12/18 13:22:21;;;;;;;18.75;7.10;;;;;;;;;;5075744;28;20023;-67
2021/12/18 13:24:47;;;;;;;;;;;;;;;;;;5076886;28;20047;-67
2021/12/18 13:27:13;;;;;;;18.27;7.13;;;;;;;;;;5094876;28;20338;-68
2021/12/18 13:29:39;;;;;;;17.42;7.32;;;;;;;;;;5076547;28;20016;-68
2021/12/18 13:32:05;;;;;;;16.38;7.03;;;;;;;;;;4717477;28;10000484;-67
2021/12/18 13:34:33;;;;;;;17.83;7.88;;;;;;;;;;5064659;28;20065;-68
2021/12/18 13:37:02;;;;;;;17.50;7.90;;;;;;;;;;5079614;28;20017;-68
2021/12/18 13:39:27;;;;;;;20.23;8.77;;;;;;;;;;5080332;28;20492;-67
2021/12/18 13:42:03;;;;;;;22.30;8.00;;;;;;;;;;5079495;28;20024;-67
2021/12/18 13:44:42;;;;;;;20.08;8.27;;;;;;;;;;5083120;28;20569;-68
2021/12/18 13:47:28;;;;;;;21.65;8.88;;;;;;;;;;5082158;28;20127;-68
2021/12/18 13:50:06;;;;;;;22.90;8.82;;;;;;;;;;5061279;28;20016;-67
2021/12/18 13:52:40;;;;;;;20.55;8.82;;;;;;;;;;5079155;28;20028;-68
2021/12/18 13:55:47;;;;;;;21.83;9.48;;;;;;;;;;5079998;28;20037;-67
2021/12/18 13:58:16;;;;;;;20.27;8.75;;;;;;;;;;5046533;28;20062;-68
2021/12/18 14:01:02;;;;;;;20.00;9.68;;;;;;;;;;5053367;28;20103;-68
2021/12/18 14:03:33;;;;;;;23.35;8.82;;;;;;;;;;5070585;28;20353;-68
2021/12/18 14:06:01;;;;;;;20.38;8.50;;;;;;;;;;4723326;28;10000102;-67
2021/12/18 14:08:27;;;;;;;22.77;9.07;;;;;;;;;;5091284;28;20499;-67
2021/12/18 14:10:54;;;;;;;24.27;9.18;;;;;;;;;;5091101;28;20535;-66
2021/12/18 14:13:20;;;;;;;21.00;8.35;;;;;;;;;;5072390;28;20050;-68
2021/12/18 14:15:46;;;;;;;23.45;10.73;;;;;;;;;;5072935;28;20132;-68
2021/12/18 14:18:31;;;;;;;24.30;10.07;;;;;;;;;;5073045;28;20039;-68
2021/12/18 14:20:57;;;;;;;22.38;9.43;;;;;;;;;;5091204;28;20036;-69
2021/12/18 14:23:28;;;;;;;20.80;8.07;;;;;;;;;;5071894;28;20032;-67
2021/12/18 14:26:15;;;;;;;20.27;8.77;;;;;;;;;;5072903;28;20472;-68
2021/12/18 14:28:42;;;;;;;21.90;8.80;;;;;;;;;;5090875;28;20108;-67
2021/12/18 14:31:28;;;;;;;20.13;8.75;;;;;;;;;;5072742;28;20016;-67
2021/12/18 14:34:13;;;;;;;21.35;9.00;;;;;;;;;;5085803;28;20032;-67
2021/12/18 14:36:40;;;;;;;20.08;9.25;;;;;;;;;;5055053;28;20115;-69
2021/12/18 14:39:06;;;;;;;19.90;8.57;;;;;;;;;;5093269;28;20032;-67
2021/12/18 14:41:35;;;;;;;22.38;9.57;;;;;;;;;;5092841;28;20039;-67
2021/12/18 14:44:01;;;;;;;21.13;8.10;;;;;;;;;;5074996;28;20057;-69
2021/12/18 14:46:27;;;;;;;21.65;9.48;;;;;;;;;;5092997;28;20507;-69
2021/12/18 14:48:54;;;;;;;20.52;8.77;;;;;;;;;;5075230;28;20427;-68
2021/12/18 14:51:27;;;;;;;19.13;7.57;;;;;;;;;;5093279;28;20024;-68
2021/12/18 14:53:59;;;;;;;18.52;7.95;;;;;;;;;;5074658;28;20399;-69
2021/12/18 14:56:25;;;;;;;21.00;8.75;;;;;;;;;;5083931;28;20484;-70
2021/12/18 14:58:51;;;;;;;20.10;8.35;;;;;;;;;;5065418;28;20028;-68
2021/12/18 15:01:20;;;;;;;23.83;10.48;;;;;;;;;;5064953;28;20025;-68
2021/12/18 15:03:47;;;;;;;18.67;8.73;;;;;;;;;;5059605;28;20024;-67
2021/12/18 15:06:19;;;;;;;18.95;8.65;;;;;;;;;;5066962;28;20487;-68
2021/12/18 15:08:50;;;;;;;21.42;10.30;;;;;;;;;;4729566;28;10000276;-68
2021/12/18 15:11:18;;;;;;;20.08;9.10;;;;;;;;;;5076692;28;20024;-67
2021/12/18 15:13:46;;;;;;;17.67;7.85;;;;;;;;;;5071757;28;20065;-68
2021/12/18 15:16:13;;;;;;;21.70;8.57;;;;;;;;;;5079904;28;20146;-68